Time;durP1;ratioP1;P1;durP2;ratioP2;P2;SDS_P1;SDS_P2;PMS_P1;PMS_P2;Temp;Humidity;BMP_temperature;BMP_pressure;BME280_temperature;BME280_humidity;BME280_pressure;Samples;Min_cycle;Max_cycle;Signal;HPM_P1;HPM_P2
2023/07/27 00:00:25;;;;;;;3.23;2.33;;;;;;;15.66;70.96;98693.81;5155222;27;42976;-74
2023/07/27 00:02:52;;;;;;;2.73;2.53;;;;;;;15.64;70.83;98690.44;5153798;27;38835;-74
2023/07/27 00:05:20;;;;;;;4.00;2.73;;;;;;;15.63;71.50;98685.22;5153885;27;42703;-74
2023/07/27 00:07:47;;;;;;;4.77;2.60;;;;;;;15.61;71.38;98688.03;5154883;27;42791;-73
2023/07/27 00:10:15;;;;;;;3.53;2.50;;;;;;;15.59;71.28;98691.78;5151713;27;43365;-74
2023/07/27 00:12:42;;;;;;;3.73;2.93;;;;;;;15.55;71.19;98691.22;5154021;27;40900;-75
2023/07/27 00:15:10;;;;;;;2.80;2.60;;;;;;;15.51;71.25;98683.56;5152656;27;41972;-74
2023/07/27 00:17:41;;;;;;;2.87;2.27;;;;;;;15.52;71.42;98687.94;5152473;27;41448;-74
2023/07/27 00:20:09;;;;;;;2.73;2.40;;;;;;;15.49;71.79;98682.84;5152536;27;42359;-74
2023/07/27 00:22:36;;;;;;;3.67;2.70;;;;;;;15.46;71.25;98682.13;5153928;27;39871;-74
2023/07/27 00:25:04;;;;;;;2.73;2.50;;;;;;;15.33;71.70;98670.81;5152466;27;42701;-74
2023/07/27 00:27:32;;;;;;;2.47;2.20;;;;;;;15.42;71.44;98682.53;5153444;27;42900;-74
2023/07/27 00:29:59;;;;;;;3.83;2.53;;;;;;;15.34;71.59;98675.16;5152666;27;42280;-74
2023/07/27 00:32:27;;;;;;;2.60;2.23;;;;;;;15.33;71.38;98681.47;5153835;27;39961;-74
2023/07/27 00:34:56;;;;;;;2.93;2.63;;;;;;;15.31;71.23;98678.13;5152435;27;42668;-74
2023/07/27 00:37:25;;;;;;;2.83;2.47;;;;;;;15.28;71.02;98678.38;5149881;27;43918;-74
2023/07/27 00:39:53;;;;;;;6.37;2.80;;;;;;;15.23;71.66;98683.22;5152272;27;42449;-74
2023/07/27 00:42:20;;;;;;;2.70;2.10;;;;;;;15.19;72.04;98672.97;5154331;27;39921;-74
2023/07/27 00:44:48;;;;;;;3.10;2.83;;;;;;;15.15;71.81;98677.72;5135981;27;41157;-74
2023/07/27 00:47:15;;;;;;;3.10;2.40;;;;;;;15.14;71.85;98675.16;5152969;27;42461;-74
2023/07/27 00:49:43;;;;;;;3.60;2.60;;;;;;;15.11;71.78;98676.25;5153191;27;42354;-74
2023/07/27 00:52:12;;;;;;;4.07;2.50;;;;;;;14.92;71.63;98641.47;5135304;27;38991;-74
2023/07/27 00:54:40;;;;;;;2.40;2.00;;;;;;;15.04;71.86;98670.59;5135612;27;42046;-74
2023/07/27 00:57:08;;;;;;;4.13;1.93;;;;;;;15.02;71.66;98671.72;5152797;27;42789;-74
2023/07/27 00:59:36;;;;;;;2.37;2.13;;;;;;;14.99;71.79;98671.97;5152898;27;42578;-74
2023/07/27 01:02:05;;;;;;;3.80;2.40;;;;;;;14.97;72.12;98663.22;5153979;27;41262;-73
2023/07/27 01:04:32;;;;;;;2.60;2.23;;;;;;;14.93;71.52;98668.00;5153004;27;41716;-73
2023/07/27 01:07:00;;;;;;;2.30;2.10;;;;;;;14.90;71.66;98662.06;5152510;27;42776;-73
2023/07/27 01:09:29;;;;;;;2.90;2.57;;;;;;;14.87;71.94;98656.97;5134682;27;41210;-73
2023/07/27 01:12:03;;;;;;;2.50;2.30;;;;;;;14.80;72.02;98647.81;5151110;27;39778;-74
2023/07/27 01:14:40;;;;;;;2.10;1.90;;;;;;;14.81;72.03;98652.16;5134375;27;41912;-73
2023/07/27 01:17:15;;;;;;;2.47;2.27;;;;;;;14.77;72.03;98650.72;5148854;27;43328;-73
2023/07/27 01:20:12;;;;;;;3.00;2.70;;;;;;;14.72;71.85;98651.09;5133726;27;41743;-73
2023/07/27 01:22:56;;;;;;;2.70;2.13;;;;;;;14.66;72.02;98644.47;5134585;27;38803;-74
2023/07/27 01:25:57;;;;;;;2.23;2.03;;;;;;;14.64;72.57;98635.75;5149278;27;41647;-73
2023/07/27 01:28:45;;;;;;;3.73;2.43;;;;;;;14.59;72.64;98632.59;5151240;27;42591;-73
2023/07/27 01:31:20;;;;;;;2.67;2.43;;;;;;;14.56;72.81;98627.53;5134023;27;41450;-73
2023/07/27 01:33:57;;;;;;;2.47;2.27;;;;;;;14.52;72.84;98626.09;5152472;27;39882;-74
2023/07/27 01:36:28;;;;;;;2.23;2.03;;;;;;;14.43;72.50;98608.22;5134098;27;42396;-73
2023/07/27 01:39:00;;;;;;;2.90;2.60;;;;;;;14.48;73.38;98614.00;5133689;27;41566;-74
2023/07/27 01:41:28;;;;;;;3.57;2.60;;;;;;;14.47;73.37;98609.63;5134549;27;42812;-73
2023/07/27 01:43:57;;;;;;;2.90;2.60;;;;;;;14.19;73.02;98570.22;5152281;27;39943;-74
2023/07/27 01:46:28;;;;;;;2.90;2.37;;;;;;;14.44;72.91;98609.06;5152272;27;42541;-73
2023/07/27 01:48:57;;;;;;;3.40;2.40;;;;;;;14.42;72.75;98603.84;5153107;27;43740;-74
2023/07/27 01:51:26;;;;;;;2.20;2.00;;;;;;;14.41;72.66;98602.16;5151861;27;42347;-73
2023/07/27 01:53:55;;;;;;;2.50;2.30;;;;;;;14.38;72.46;98602.38;5152035;27;39743;-73
2023/07/27 01:56:25;;;;;;;2.63;2.43;;;;;;;14.38;72.48;98607.69;5134645;27;40471;-73
2023/07/27 01:58:54;;;;;;;2.20;2.00;;;;;;;14.35;72.67;98602.59;5151972;27;43543;-74
2023/07/27 02:01:22;;;;;;;2.90;2.30;;;;;;;14.28;72.65;98590.78;5152071;27;42275;-73
2023/07/27 02:03:51;;;;;;;3.17;2.63;;;;;;;14.29;72.21;98592.47;5151924;27;40313;-73
2023/07/27 02:06:18;;;;;;;3.30;2.17;;;;;;;14.27;72.42;98589.09;5134667;27;40763;-73
2023/07/27 02:08:46;;;;;;;3.20;2.60;;;;;;;14.24;72.67;98584.00;5151826;27;43137;-73
2023/07/27 02:11:17;;;;;;;3.57;2.10;;;;;;;14.16;72.50;98575.81;5152054;27;42396;-73
2023/07/27 02:13:53;;;;;;;2.07;1.87;;;;;;;14.21;72.33;98585.13;5151030;27;40451;-74
2023/07/27 02:16:24;;;;;;;2.30;2.10;;;;;;;14.19;72.36;98588.88;5150679;27;41733;-74
2023/07/27 02:18:56;;;;;;;2.40;2.20;;;;;;;14.20;72.02;98582.56;5133330;27;42011;-74
2023/07/27 02:21:26;;;;;;;1.93;1.83;;;;;;;14.10;72.39;98560.31;5133473;27;41045;-72
2023/07/27 02:23:54;;;;;;;2.47;2.20;;;;;;;14.21;72.17;98568.28;5150663;27;40114;-74
2023/07/27 02:26:23;;;;;;;2.43;2.23;;;;;;;14.24;72.10;98570.69;5150597;27;42713;-74
2023/07/27 02:28:51;;;;;;;2.37;2.10;;;;;;;14.26;72.34;98577.59;5152088;27;42686;-74
2023/07/27 02:31:19;;;;;;;2.73;1.90;;;;;;;14.32;72.14;98573.59;5150854;27;42320;-74
2023/07/27 02:33:47;;;;;;;4.23;2.23;;;;;;;14.35;72.13;98574.16;5153953;27;39990;-74
2023/07/27 02:36:15;;;;;;;2.00;1.80;;;;;;;14.40;71.68;98571.16;5154374;27;42718;-74
2023/07/27 02:38:43;;;;;;;3.40;2.50;;;;;;;14.43;71.54;98576.25;5154092;27;42646;-74
2023/07/27 02:41:11;;;;;;;2.60;2.27;;;;;;;14.44;72.71;98561.94;5136980;27;42456;-74
2023/07/27 02:43:41;;;;;;;3.50;2.43;;;;;;;14.43;72.88;98557.59;5155011;27;41632;-74
2023/07/27 02:46:09;;;;;;;3.47;2.20;;;;;;;14.43;72.57;98568.25;5137853;27;40687;-74
2023/07/27 02:48:37;;;;;;;2.77;2.20;;;;;;;14.42;72.61;98555.91;5137678;27;41757;-74
2023/07/27 02:51:06;;;;;;;2.60;2.30;;;;;;;14.40;72.68;98552.50;5137293;27;41468;-74
2023/07/27 02:53:35;;;;;;;3.40;2.30;;;;;;;14.43;72.63;98557.59;5154506;27;39705;-74
2023/07/27 02:56:09;;;;;;;2.00;1.80;;;;;;;14.44;72.54;98559.28;5137862;27;41169;-74
2023/07/27 02:58:47;;;;;;;2.10;1.90;;;;;;;14.46;72.25;98561.81;5138665;27;20224;-74
2023/07/27 03:01:15;;;;;;;1.87;1.67;;;;;;;14.46;72.08;98562.66;5155032;27;42077;-74
2023/07/27 03:03:43;;;;;;;2.80;1.77;;;;;;;14.48;72.26;98560.69;5154979;27;39944;-74
2023/07/27 03:06:13;;;;;;;3.37;2.43;;;;;;;14.50;72.05;98568.56;5137037;27;40776;-74
2023/07/27 03:08:48;;;;;;;2.33;2.13;;;;;;;14.50;72.68;98561.41;5137094;27;42794;-73
2023/07/27 03:11:16;;;;;;;2.30;2.07;;;;;;;14.51;72.52;98560.44;5152783;27;43344;-74
2023/07/27 03:13:44;;;;;;;3.00;2.43;;;;;;;14.53;72.62;98558.50;5153787;27;40983;-74
2023/07/27 03:16:11;;;;;;;3.03;2.23;;;;;;;14.40;72.26;98533.84;5153664;27;41834;-74
2023/07/27 03:18:39;;;;;;;2.20;2.00;;;;;;;14.57;72.46;98559.94;5153399;27;42590;-74
2023/07/27 03:21:07;;;;;;;3.40;2.30;;;;;;;14.58;72.54;98556.31;5154816;27;43310;-74
2023/07/27 03:23:35;;;;;;;2.43;2.23;;;;;;;14.50;72.34;98532.13;5135957;27;38702;-74
2023/07/27 03:26:10;;;;;;;2.43;2.10;;;;;;;14.64;72.31;98547.78;5135798;27;41717;-74
2023/07/27 03:28:38;;;;;;;2.37;2.17;;;;;;;14.66;72.23;98547.66;5152907;27;42892;-74
2023/07/27 03:31:15;;;;;;;2.37;2.13;;;;;;;14.64;72.11;98537.13;5153209;27;42388;-74
2023/07/27 03:33:43;;;;;;;2.60;2.30;;;;;;;14.71;72.10;98542.81;5153138;27;41046;-74
2023/07/27 03:36:11;;;;;;;3.80;2.70;;;;;;;14.73;72.14;98543.50;5153438;27;42159;-74
2023/07/27 03:38:39;;;;;;;3.03;2.57;;;;;;;14.75;72.23;98544.22;5135881;27;42771;-74
2023/07/27 03:41:08;;;;;;;2.90;2.60;;;;;;;14.77;72.09;98549.44;5136427;27;42275;-74
2023/07/27 03:43:36;;;;;;;3.63;2.67;;;;;;;14.83;72.22;98548.91;5136463;27;38883;-74
2023/07/27 03:46:04;;;;;;;3.00;2.80;;;;;;;14.86;72.43;98548.63;5154084;27;42548;-74
2023/07/27 03:48:32;;;;;;;2.73;2.40;;;;;;;14.88;72.38;98544.88;5154195;27;42899;-73
2023/07/27 03:51:00;;;;;;;2.50;2.30;;;;;;;14.93;71.98;98540.00;5154017;27;42084;-74
2023/07/27 03:53:29;;;;;;;2.73;2.07;;;;;;;14.97;71.98;98529.91;5137183;27;39003;-73
2023/07/27 03:55:57;;;;;;;2.20;2.00;;;;;;;14.96;71.92;98522.91;5153595;27;42694;-75
2023/07/27 03:58:26;;;;;;;2.47;2.27;;;;;;;15.06;71.79;98534.47;5136363;27;43015;-74
2023/07/27 04:00:54;;;;;;;2.40;2.20;;;;;;;15.09;71.83;98528.84;5136498;27;41282;-74
2023/07/27 04:03:21;;;;;;;4.50;2.83;;;;;;;15.14;71.65;98529.31;5136783;27;40353;-74
2023/07/27 04:05:49;;;;;;;3.10;2.70;;;;;;;15.02;71.88;98501.03;5154010;27;40748;-73
2023/07/27 04:08:17;;;;;;;2.90;2.67;;;;;;;15.26;71.52;98525.59;5153696;27;43607;-74
2023/07/27 04:10:45;;;;;;;2.33;2.17;;;;;;;15.32;71.50;98535.72;5153387;27;42162;-74
2023/07/27 04:13:12;;;;;;;3.73;2.60;;;;;;;15.37;71.51;98528.16;5154005;27;39977;-74
2023/07/27 04:15:42;;;;;;;2.27;2.07;;;;;;;15.43;71.55;98532.97;5135440;27;40757;-74
2023/07/27 04:18:10;;;;;;;2.80;2.60;;;;;;;15.48;71.14;98521.88;5134924;27;41756;-74
2023/07/27 04:20:38;;;;;;;2.37;2.07;;;;;;;15.50;71.21;98530.59;5153777;27;43232;-74
2023/07/27 04:23:05;;;;;;;3.03;2.37;;;;;;;15.57;71.20;98528.28;5135037;27;40888;-74
2023/07/27 04:25:33;;;;;;;2.87;2.40;;;;;;;15.62;71.28;98531.38;5152571;27;42256;-74
2023/07/27 04:28:01;;;;;;;4.27;3.07;;;;;;;15.63;71.31;98527.72;5134631;27;41785;-73
2023/07/27 04:30:29;;;;;;;2.47;2.27;;;;;;;15.67;70.99;98529.16;5135041;27;42249;-74
2023/07/27 04:32:58;;;;;;;2.90;2.47;;;;;;;15.72;71.32;98529.56;5152467;27;40890;-74
2023/07/27 04:35:26;;;;;;;2.53;2.23;;;;;;;15.76;70.75;98529.16;5152363;27;42160;-74
2023/07/27 04:37:54;;;;;;;3.33;2.60;;;;;;;15.81;70.82;98528.78;5134620;27;41668;-74
2023/07/27 04:40:23;;;;;;;4.30;2.60;;;;;;;15.84;71.14;98515.13;5152620;27;42912;-74
2023/07/27 04:42:51;;;;;;;2.80;2.50;;;;;;;15.88;71.66;98516.56;5135553;27;39515;-74
2023/07/27 04:45:19;;;;;;;2.87;2.57;;;;;;;15.84;71.78;98503.59;5154223;27;42392;-74
2023/07/27 04:47:46;;;;;;;3.50;2.87;;;;;;;15.88;71.42;98511.22;5135718;27;43117;-74
2023/07/27 04:50:16;;;;;;;2.57;2.37;;;;;;;15.90;71.84;98509.25;5154464;27;42231;-74
2023/07/27 04:52:44;;;;;;;3.10;2.50;;;;;;;15.93;71.32;98508.97;5152519;27;40901;-75
2023/07/27 04:55:11;;;;;;;2.63;2.30;;;;;;;15.98;71.62;98506.72;5152471;27;42552;-74
2023/07/27 04:57:39;;;;;;;2.50;2.30;;;;;;;16.04;71.66;98500.84;5152401;27;41903;-74
2023/07/27 05:00:08;;;;;;;2.60;2.40;;;;;;;16.13;71.15;98499.16;5152862;27;42939;-74
2023/07/27 05:02:36;;;;;;;3.00;2.70;;;;;;;16.21;71.07;98501.13;5152571;27;40046;-74
2023/07/27 05:05:04;;;;;;;2.53;2.30;;;;;;;16.30;70.49;98500.31;5154229;27;41543;-74
2023/07/27 05:07:33;;;;;;;3.23;2.73;;;;;;;16.39;71.03;98504.78;5152518;27;42560;-73
2023/07/27 05:10:00;;;;;;;2.67;2.47;;;;;;;16.49;70.26;98494.94;5152311;27;43183;-74
2023/07/27 05:12:28;;;;;;;4.00;2.83;;;;;;;16.61;70.47;98493.81;5133775;27;39960;-74
2023/07/27 05:14:56;;;;;;;3.57;2.80;;;;;;;16.68;69.79;98489.63;5152026;27;40586;-74
2023/07/27 05:17:24;;;;;;;4.67;2.80;;;;;;;16.76;70.05;98487.06;5133984;27;42818;-74
2023/07/27 05:19:53;;;;;;;2.90;2.53;;;;;;;16.82;69.88;98480.28;5153016;27;42077;-74
2023/07/27 05:22:20;;;;;;;4.30;2.40;;;;;;;16.89;69.72;98481.41;5151288;27;38912;-74
2023/07/27 05:24:50;;;;;;;3.30;2.80;;;;;;;16.94;69.64;98484.47;5153150;27;42599;-74
2023/07/27 05:27:17;;;;;;;2.40;2.20;;;;;;;17.00;69.34;98483.06;5151193;27;43702;-74
2023/07/27 05:29:45;;;;;;;3.00;2.67;;;;;;;17.06;69.02;98477.13;5151354;27;42393;-72
2023/07/27 05:32:13;;;;;;;3.27;2.83;;;;;;;17.12;68.94;98480.06;5151656;27;40933;-74
2023/07/27 05:34:41;;;;;;;3.10;2.80;;;;;;;17.17;68.86;98490.34;5152629;27;42032;-73
2023/07/27 05:37:08;;;;;;;3.70;2.60;;;;;;;17.20;68.77;98480.16;5152685;27;43737;-74
2023/07/27 05:39:36;;;;;;;3.80;2.57;;;;;;;17.27;68.64;98483.13;5151589;27;42460;-72
2023/07/27 05:42:06;;;;;;;3.03;2.73;;;;;;;17.31;68.04;98487.16;5152303;27;39805;-75
2023/07/27 05:44:33;;;;;;;2.93;2.63;;;;;;;17.35;67.59;98493.91;5153875;27;41515;-73
2023/07/27 05:47:04;;;;;;;3.27;2.80;;;;;;;17.41;67.74;98492.50;5152093;27;42791;-72
2023/07/27 05:49:32;;;;;;;2.93;2.60;;;;;;;17.38;67.44;98469.53;5150415;27;43316;-74
2023/07/27 05:52:00;;;;;;;3.43;2.50;;;;;;;17.57;67.80;98482.81;5151428;27;38869;-74
2023/07/27 05:54:27;;;;;;;3.10;2.70;;;;;;;17.62;67.45;98489.56;5135098;27;40710;-74
2023/07/27 05:56:55;;;;;;;3.00;2.27;;;;;;;17.68;67.12;98483.66;5151611;27;41718;-74
2023/07/27 05:59:24;;;;;;;2.93;2.53;;;;;;;17.75;66.88;98485.59;5151849;27;42754;-73
2023/07/27 06:01:52;;;;;;;2.80;2.43;;;;;;;17.82;66.89;98496.53;5153189;27;41043;-74
2023/07/27 06:04:20;;;;;;;2.77;2.57;;;;;;;17.79;65.95;98496.84;5152318;27;41879;-73
2023/07/27 06:06:48;;;;;;;3.37;2.90;;;;;;;17.79;66.05;98491.50;5153426;27;42780;-75
2023/07/27 06:09:16;;;;;;;2.53;2.33;;;;;;;17.77;66.31;98494.31;5156368;27;42682;-73
2023/07/27 06:11:44;;;;;;;3.13;2.57;;;;;;;17.79;66.35;98488.81;5154987;27;40928;-75
2023/07/27 06:14:12;;;;;;;2.83;2.23;;;;;;;17.74;66.37;98472.34;5154517;27;41608;-74
2023/07/27 06:16:41;;;;;;;4.13;2.30;;;;;;;17.84;66.13;98490.03;5155786;27;42718;-72
2023/07/27 06:19:08;;;;;;;2.43;2.07;;;;;;;17.91;66.59;98490.28;5154506;27;42369;-72
2023/07/27 06:21:35;;;;;;;3.57;2.97;;;;;;;18.02;66.35;98483.88;5137081;27;38935;-74
2023/07/27 06:24:03;;;;;;;2.77;2.57;;;;;;;18.20;65.75;98485.53;5155693;27;42624;-75
2023/07/27 06:26:31;;;;;;;3.07;2.17;;;;;;;18.39;65.76;98486.41;5154670;27;43263;-72
2023/07/27 06:28:59;;;;;;;4.30;2.33;;;;;;;18.59;65.31;98485.25;5154111;27;40779;-74
2023/07/27 06:31:26;;;;;;;4.27;2.83;;;;;;;18.69;65.07;98475.25;5137251;27;40329;-75
2023/07/27 06:33:55;;;;;;;2.93;2.50;;;;;;;18.94;63.75;98484.34;5155486;27;42768;-74
2023/07/27 06:36:23;;;;;;;4.60;2.80;;;;;;;19.02;63.52;98476.34;5155604;27;42899;-76
2023/07/27 06:38:51;;;;;;;3.00;2.50;;;;;;;19.11;63.67;98474.56;5154229;27;42253;-73
2023/07/27 06:41:24;;;;;;;3.70;2.50;;;;;;;19.11;63.51;98463.81;5154973;27;40919;-76
2023/07/27 06:43:52;;;;;;;3.57;2.60;;;;;;;19.19;62.28;98494.22;5155255;27;41736;-74
2023/07/27 06:46:20;;;;;;;3.53;2.47;;;;;;;19.13;62.31;98478.75;5155309;27;42838;-76
2023/07/27 06:48:48;;;;;;;3.70;2.50;;;;;;;19.09;62.46;98481.91;5154687;27;41120;-73
2023/07/27 06:51:17;;;;;;;4.23;2.50;;;;;;;19.01;63.52;98480.88;5156287;27;41027;-73
2023/07/27 06:53:44;;;;;;;2.73;2.50;;;;;;;18.92;64.10;98473.75;5154778;27;42726;-75
2023/07/27 06:56:12;;;;;;;2.83;2.20;;;;;;;18.86;64.58;98466.34;5156389;27;43764;-74
2023/07/27 06:58:40;;;;;;;3.50;2.27;;;;;;;18.84;65.10;98460.28;5156120;27;43001;-75
2023/07/27 07:01:10;;;;;;;2.73;2.30;;;;;;;18.90;65.77;98456.16;5156119;27;39984;-73
2023/07/27 07:03:38;;;;;;;3.07;2.13;;;;;;;19.02;65.30;98454.88;5154927;27;42722;-74
2023/07/27 07:06:05;;;;;;;2.73;2.17;;;;;;;19.14;64.99;98456.28;5137525;27;42888;-75
2023/07/27 07:08:35;;;;;;;2.63;2.40;;;;;;;19.22;64.57;98460.84;5155711;27;43334;-74
2023/07/27 07:11:03;;;;;;;3.03;2.23;;;;;;;19.37;64.01;98459.25;5154276;27;39987;-72
2023/07/27 07:13:31;;;;;;;7.53;2.33;;;;;;;19.47;63.39;98457.28;5154619;27;42679;-73
2023/07/27 07:15:59;;;;;;;3.13;2.23;;;;;;;19.60;62.90;98455.00;5153701;27;42624;-75
2023/07/27 07:18:27;;;;;;;3.20;2.17;;;;;;;19.71;62.90;98457.41;5154165;27;42254;-73
2023/07/27 07:20:55;;;;;;;4.80;2.30;;;;;;;19.77;62.21;98460.44;5155142;27;40724;-74
2023/07/27 07:23:24;;;;;;;2.20;2.00;;;;;;;19.78;62.18;98462.13;5136013;27;41635;-75
2023/07/27 07:25:53;;;;;;;4.73;2.40;;;;;;;19.82;62.33;98463.47;5154610;27;43737;-75
2023/07/27 07:28:21;;;;;;;3.03;2.30;;;;;;;19.85;63.00;98458.63;5135812;27;41173;-74
2023/07/27 07:30:49;;;;;;;3.10;2.20;;;;;;;19.90;62.69;98455.44;5136191;27;38842;-73
2023/07/27 07:33:16;;;;;;;5.20;2.60;;;;;;;19.89;62.74;98451.06;5153355;27;41830;-75
2023/07/27 07:35:44;;;;;;;4.10;2.40;;;;;;;19.95;62.85;98453.94;5136446;27;41866;-76
2023/07/27 07:38:12;;;;;;;3.97;2.33;;;;;;;19.97;62.83;98451.09;5154448;27;42316;-73
2023/07/27 07:40:39;;;;;;;3.97;2.30;;;;;;;19.93;62.73;98447.88;5155041;27;40549;-73
2023/07/27 07:43:08;;;;;;;4.93;2.50;;;;;;;19.92;62.85;98448.03;5136680;27;40742;-73
2023/07/27 07:45:36;;;;;;;3.40;2.10;;;;;;;19.91;63.43;98449.03;5155436;27;42826;-75
2023/07/27 07:48:04;;;;;;;2.53;2.23;;;;;;;19.95;63.94;98450.41;5155173;27;42246;-75
2023/07/27 07:50:36;;;;;;;2.80;2.00;;;;;;;19.94;63.08;98446.03;5155459;27;40785;-75
2023/07/27 07:53:05;;;;;;;4.13;2.20;;;;;;;19.92;63.05;98443.50;5154960;27;42548;-74
2023/07/27 07:55:35;;;;;;;2.90;1.90;;;;;;;19.87;63.82;98440.50;5155034;27;42725;-72
2023/07/27 07:58:04;;;;;;;2.57;2.33;;;;;;;19.88;64.62;98444.00;5153703;27;43285;-76
2023/07/27 08:00:33;;;;;;;3.10;1.90;;;;;;;19.83;64.88;98432.91;5154254;27;39058;-74
2023/07/27 08:03:00;;;;;;;3.47;2.33;;;;;;;19.76;65.26;98430.06;5154631;27;41778;-74
2023/07/27 08:05:28;;;;;;;3.20;2.27;;;;;;;19.75;66.08;98419.47;5153947;27;43662;-74
2023/07/27 08:07:56;;;;;;;3.63;2.40;;;;;;;19.70;66.05;98426.16;5151712;27;43017;-73
2023/07/27 08:10:26;;;;;;;3.03;2.20;;;;;;;19.67;66.40;98422.94;5152733;27;38935;-73
2023/07/27 08:12:53;;;;;;;4.63;2.33;;;;;;;19.67;67.39;98418.41;5153021;27;40637;-75
2023/07/27 08:15:21;;;;;;;3.93;2.07;;;;;;;19.68;67.46;98412.03;5152938;27;42826;-75
2023/07/27 08:17:50;;;;;;;3.40;2.33;;;;;;;19.74;67.75;98405.19;5152597;27;42226;-73
2023/07/27 08:20:18;;;;;;;6.67;2.40;;;;;;;19.82;67.71;98409.72;5135505;27;39972;-73
2023/07/27 08:22:46;;;;;;;2.57;2.30;;;;;;;19.85;67.86;98406.72;5152248;27;41945;-75
2023/07/27 08:25:14;;;;;;;3.60;2.27;;;;;;;19.83;67.46;98401.50;5153817;27;43830;-75
2023/07/27 08:27:42;;;;;;;2.77;2.30;;;;;;;19.82;68.26;98389.06;5153030;27;42443;-73
2023/07/27 08:30:11;;;;;;;3.57;2.20;;;;;;;19.88;68.18;98393.78;5152646;27;41953;-73
2023/07/27 08:32:40;;;;;;;3.80;2.30;;;;;;;19.88;68.58;98396.47;5153427;27;42469;-74
2023/07/27 08:35:09;;;;;;;2.50;2.30;;;;;;;19.83;68.07;98400.66;5152416;27;44197;-74
2023/07/27 08:37:37;;;;;;;5.60;2.50;;;;;;;19.78;68.84;98386.91;5152237;27;43260;-76
2023/07/27 08:40:08;;;;;;;5.00;2.33;;;;;;;19.80;68.93;98390.22;5153695;27;40064;-75
2023/07/27 08:42:37;;;;;;;3.50;2.50;;;;;;;19.79;68.35;98394.75;5134797;27;42076;-76
2023/07/27 08:45:06;;;;;;;4.37;2.40;;;;;;;19.77;68.76;98396.81;5152307;27;43910;-76
2023/07/27 08:47:34;;;;;;;3.70;2.30;;;;;;;19.80;69.15;98395.59;5134669;27;42375;-76
2023/07/27 08:50:03;;;;;;;3.10;2.40;;;;;;;19.85;69.02;98395.97;5154371;27;40024;-73
2023/07/27 08:52:32;;;;;;;7.53;2.53;;;;;;;19.84;68.96;98394.28;5153862;27;41772;-75
2023/07/27 08:55:01;;;;;;;2.77;2.13;;;;;;;19.76;68.83;98396.97;5154134;27;43812;-73
2023/07/27 08:57:29;;;;;;;2.90;2.60;;;;;;;19.75;69.37;98388.06;5152962;27;41371;-75
2023/07/27 08:59:57;;;;;;;3.37;2.00;;;;;;;19.65;68.95;98372.09;5154368;27;39773;-75
2023/07/27 09:02:25;;;;;;;2.63;2.30;;;;;;;19.76;69.51;98367.41;5152853;27;41875;-74
2023/07/27 09:04:53;;;;;;;2.90;2.60;;;;;;;19.82;69.64;98377.47;5152736;27;42820;-77
2023/07/27 09:07:20;;;;;;;2.93;2.33;;;;;;;19.83;69.52;98371.09;5153860;27;42444;-73
2023/07/27 09:09:53;;;;;;;2.50;2.27;;;;;;;19.82;68.91;98377.47;5152995;27;39905;-73
2023/07/27 09:12:22;;;;;;;3.10;2.33;;;;;;;19.80;68.95;98368.75;5150412;27;41922;-73
2023/07/27 09:14:49;;;;;;;2.50;2.30;;;;;;;19.84;69.12;98370.94;5151805;27;41813;-74
2023/07/27 09:17:18;;;;;;;3.00;2.30;;;;;;;19.88;69.30;98366.09;5133904;27;42652;-75
2023/07/27 09:19:45;;;;;;;3.40;2.43;;;;;;;19.93;69.13;98374.47;5134605;27;40011;-75
2023/07/27 09:22:13;;;;;;;2.87;2.43;;;;;;;19.95;69.42;98367.94;5134235;27;40686;-75
2023/07/27 09:24:42;;;;;;;2.87;2.40;;;;;;;19.86;68.77;98347.44;5152886;27;43536;-75
2023/07/27 09:27:13;;;;;;;3.23;2.90;;;;;;;19.99;69.08;98355.00;5151231;27;42991;-77
2023/07/27 09:29:41;;;;;;;2.37;2.17;;;;;;;20.00;69.27;98343.25;5148606;27;40726;-74
2023/07/27 09:32:11;;;;;;;2.83;2.47;;;;;;;20.16;69.04;98364.72;5134042;27;41933;-74
2023/07/27 09:34:39;;;;;;;2.83;2.53;;;;;;;20.17;69.49;98352.13;5151608;27;41368;-74
2023/07/27 09:37:07;;;;;;;3.67;2.73;;;;;;;20.21;70.00;98345.41;5152780;27;42698;-75
2023/07/27 09:39:35;;;;;;;2.63;2.00;;;;;;;20.28;69.59;98347.25;5152774;27;39749;-73
2023/07/27 09:42:03;;;;;;;2.80;2.60;;;;;;;20.24;69.02;98345.09;5151803;27;41596;-74
2023/07/27 09:44:47;;;;;;;3.53;2.60;;;;;;;20.19;70.75;98331.28;5134921;27;41762;-74
2023/07/27 09:47:19;;;;;;;5.20;2.67;;;;;;;20.15;70.99;98330.81;5135034;27;42583;-73
2023/07/27 09:49:50;;;;;;;2.83;2.50;;;;;;;20.19;70.91;98336.66;5152224;27;40330;-73
2023/07/27 09:52:19;;;;;;;2.60;2.40;;;;;;;20.10;71.43;98330.47;5134334;27;41592;-73
2023/07/27 09:54:49;;;;;;;3.77;2.63;;;;;;;20.07;70.57;98333.47;5151947;27;42223;-73
2023/07/27 09:57:16;;;;;;;2.60;2.40;;;;;;;20.02;70.66;98335.84;5151765;27;42299;-75
2023/07/27 09:59:46;;;;;;;4.77;2.63;;;;;;;19.92;70.98;98329.78;5153341;27;40109;-75
2023/07/27 10:02:14;;;;;;;3.20;2.87;;;;;;;19.87;71.48;98322.25;5151801;27;40928;-76
2023/07/27 10:04:43;;;;;;;3.17;2.57;;;;;;;19.83;72.96;98320.03;5153379;27;42789;-76
2023/07/27 10:07:11;;;;;;;3.60;2.93;;;;;;;19.71;73.35;98301.56;5151676;27;41151;-74
2023/07/27 10:09:39;;;;;;;3.90;2.90;;;;;;;19.56;73.85;98313.97;5152354;27;41838;-75
2023/07/27 10:12:07;;;;;;;4.53;2.70;;;;;;;19.51;75.40;98321.69;5150602;27;41563;-74
2023/07/27 10:14:35;;;;;;;3.20;2.80;;;;;;;19.33;75.88;98329.00;5151206;27;42634;-74
2023/07/27 10:17:07;;;;;;;3.13;2.60;;;;;;;19.12;76.76;98323.25;5134481;27;41605;-75
2023/07/27 10:19:42;;;;;;;3.27;2.80;;;;;;;18.90;77.98;98322.84;5150268;27;40138;-77
2023/07/27 10:22:13;;;;;;;2.60;2.40;;;;;;;18.76;78.48;98325.28;5150765;27;40731;-75
2023/07/27 10:24:49;;;;;;;3.33;2.40;;;;;;;18.64;79.94;98322.03;5149129;27;43612;-75
2023/07/27 10:27:18;;;;;;;3.03;2.50;;;;;;;18.49;80.19;98323.59;5151863;27;42312;-75
2023/07/27 10:29:53;;;;;;;3.23;2.20;;;;;;;18.36;81.60;98328.53;5150971;27;39935;-75
2023/07/27 10:32:23;;;;;;;2.07;1.87;;;;;;;18.16;81.51;98318.03;5149357;27;42763;-77
2023/07/27 10:34:51;;;;;;;2.43;2.00;;;;;;;18.14;82.26;98319.16;5150898;27;44120;-74
2023/07/27 10:37:19;;;;;;;2.20;1.90;;;;;;;18.11;82.37;98319.47;5133324;27;41487;-75
2023/07/27 10:39:48;;;;;;;3.67;1.80;;;;;;;18.09;82.48;98314.25;5151021;27;38630;-75
2023/07/27 10:42:17;;;;;;;3.27;2.40;;;;;;;18.13;82.68;98310.28;5151428;27;42710;-74
2023/07/27 10:44:48;;;;;;;2.10;1.90;;;;;;;18.19;82.72;98300.75;5151811;27;42813;-74
2023/07/27 10:47:17;;;;;;;2.87;1.87;;;;;;;18.11;82.82;98295.34;5151660;27;42131;-75
2023/07/27 10:49:48;;;;;;;2.50;1.90;;;;;;;18.15;83.50;98304.78;5152832;27;40453;-75
2023/07/27 10:52:17;;;;;;;3.10;2.00;;;;;;;18.05;83.02;98296.00;5150028;27;42694;-74
2023/07/27 10:54:47;;;;;;;2.47;1.83;;;;;;;18.10;83.69;98297.19;5155849;27;42762;-74
2023/07/27 10:57:17;;;;;;;3.67;2.07;;;;;;;18.12;82.88;98289.84;5155953;27;42287;-74
2023/07/27 10:59:46;;;;;;;3.80;2.13;;;;;;;18.05;83.35;98286.09;5155135;27;39878;-74
2023/07/27 11:02:17;;;;;;;2.43;2.23;;;;;;;18.02;83.51;98270.34;5154668;27;41021;-76
2023/07/27 11:04:48;;;;;;;2.50;2.17;;;;;;;18.17;83.56;98281.34;5137578;27;42994;-75
2023/07/27 11:07:26;;;;;;;3.20;1.90;;;;;;;18.26;82.80;98280.38;5156067;27;41939;-75
2023/07/27 11:09:54;;;;;;;2.57;2.07;;;;;;;18.29;83.08;98264.84;5153917;27;39007;-74
2023/07/27 11:12:22;;;;;;;4.07;2.20;;;;;;;18.39;82.61;98263.88;5154493;27;41545;-74
2023/07/27 11:14:50;;;;;;;3.33;2.43;;;;;;;18.46;82.74;98267.59;5155060;27;42790;-74
2023/07/27 11:17:18;;;;;;;2.17;1.97;;;;;;;18.43;82.97;98257.16;5153878;27;41120;-74
2023/07/27 11:19:48;;;;;;;3.13;1.70;;;;;;;18.57;82.51;98256.56;5155086;27;40021;-74
2023/07/27 11:22:17;;;;;;;2.27;2.07;;;;;;;18.67;81.99;98241.22;5153239;27;40816;-75
2023/07/27 11:24:44;;;;;;;2.60;2.03;;;;;;;18.89;81.40;98254.06;5153621;27;43821;-75
2023/07/27 11:27:12;;;;;;;4.13;2.70;;;;;;;19.10;80.06;98250.09;5154835;27;42268;-74
2023/07/27 11:29:43;;;;;;;4.23;2.90;;;;;;;19.30;80.22;98248.78;5136459;27;39132;-75
2023/07/27 11:32:10;;;;;;;2.97;2.50;;;;;;;19.42;78.89;98242.06;5136074;27;40605;-74
2023/07/27 11:34:38;;;;;;;4.33;2.03;;;;;;;19.49;78.55;98234.25;5154750;27;43695;-76
2023/07/27 11:37:08;;;;;;;4.10;2.33;;;;;;;19.63;78.94;98233.56;5152969;27;41157;-76
2023/07/27 11:39:35;;;;;;;2.47;2.27;;;;;;;19.76;78.22;98233.06;5153236;27;41307;-74
2023/07/27 11:42:10;;;;;;;3.87;2.40;;;;;;;19.88;78.37;98229.03;5155537;27;42575;-77